SDM5864 FIMP-OMDB
Flight info
| Callsign | SDM5864 |
|---|---|
| Flight time | N/A |
| Altitude | 37000 |
| Route | DURDA1C DURDA/N0489F390 UT401 ALRAN UM313 RERUS/N0489F380 UM313 PRA/N0486F390 UM314 EKBEL/N0483F410 UM314 SUHIL R401 VELIK/N0486F400 R401 MUSAP/N0491F350 R401 PEDOG Q308 KIPOK Q568 IMPED |
| Aircraft | A359/H-SDE2E3GHIJ3J4J5LM1ORWXY/LB1D1 |
Departure
| Time | 2026-05-04 17:10 |
|---|---|
| Airport | Sir Seewoosagur Ramgoolam International Airport (FIMP) |
Arrival
| Time | N/A |
|---|---|
| Airport | Dubai International Airport (OMDB) |
| Time | Latitude | Longitude | Altitude | Speed | Heading |
|---|---|---|---|---|---|
| 2026-05-04 17:00 | -20.43119 | 57.67774 | 192 ft | 0 kts | 207° |
| 2026-05-04 17:00 | -20.43118 | 57.67774 | 210 ft | 2 kts | 207° |
| 2026-05-04 17:01 | -20.43084 | 57.67792 | 207 ft | 3 kts | 207° |
| 2026-05-04 17:01 | -20.43053 | 57.67817 | 207 ft | 3 kts | 257° |
| 2026-05-04 17:02 | -20.43052 | 57.67837 | 205 ft | 0 kts | 296° |
| 2026-05-04 17:05 | -20.43002 | 57.67734 | 203 ft | 15 kts | 298° |
| 2026-05-04 17:06 | -20.42849 | 57.67588 | 205 ft | 16 kts | 327° |
| 2026-05-04 17:06 | -20.42753 | 57.67523 | 203 ft | 17 kts | 327° |
| 2026-05-04 17:07 | -20.42576 | 57.67411 | 209 ft | 13 kts | 311° |
| 2026-05-04 17:07 | -20.42542 | 57.67356 | 212 ft | 13 kts | 300° |
| 2026-05-04 17:07 | -20.42517 | 57.67235 | 207 ft | 10 kts | 269° |
| 2026-05-04 17:07 | -20.42505 | 57.67223 | 217 ft | 0 kts | 342° |
| 2026-05-04 17:08 | -20.42496 | 57.67231 | 218 ft | 1 kts | 49° |
| 2026-05-04 17:08 | -20.42513 | 57.67292 | 212 ft | 0 kts | 119° |
| 2026-05-04 17:09 | -20.42520 | 57.67305 | 215 ft | 16 kts | 119° |
| 2026-05-04 17:09 | -20.42680 | 57.67636 | 209 ft | 83 kts | 117° |
| 2026-05-04 17:09 | -20.43031 | 57.68367 | 203 ft | 137 kts | 117° |
| 2026-05-04 17:10 | -20.44127 | 57.70362 | 1058 ft | 155 kts | 122° |
| 2026-05-04 17:10 | -20.45297 | 57.73802 | 2106 ft | 199 kts | 83° |
| 2026-05-04 17:11 | -20.44630 | 57.75168 | 2362 ft | 224 kts | 45° |
| 2026-05-04 17:11 | -20.43329 | 57.76238 | 2679 ft | 248 kts | 36° |
| 2026-05-04 17:11 | -20.40324 | 57.78391 | 3695 ft | 270 kts | 37° |
| 2026-05-04 17:12 | -20.38768 | 57.79534 | 4351 ft | 273 kts | 37° |
| 2026-05-04 17:12 | -20.35621 | 57.81882 | 5723 ft | 279 kts | 37° |
| 2026-05-04 17:13 | -20.30799 | 57.85511 | 7794 ft | 288 kts | 37° |
| 2026-05-04 17:14 | -20.25389 | 57.88633 | 9794 ft | 301 kts | 27° |
| 2026-05-04 17:14 | -20.23486 | 57.89642 | 10329 ft | 311 kts | 26° |
| 2026-05-04 17:14 | -20.19081 | 57.89949 | 10838 ft | 343 kts | 336° |
| 2026-05-04 17:15 | -20.17104 | 57.88500 | 11086 ft | 353 kts | 311° |
| 2026-05-04 17:15 | -20.13975 | 57.84266 | 11744 ft | 373 kts | 306° |
| 2026-05-04 17:16 | -20.10717 | 57.79894 | 12748 ft | 380 kts | 307° |
| 2026-05-04 17:16 | -20.05655 | 57.73341 | 14182 ft | 388 kts | 307° |
| 2026-05-04 17:17 | -20.03929 | 57.71127 | 14604 ft | 390 kts | 307° |
| 2026-05-04 17:17 | -19.98680 | 57.64417 | 15858 ft | 397 kts | 307° |
| 2026-05-04 17:18 | -19.96904 | 57.62145 | 16256 ft | 400 kts | 307° |
| 2026-05-04 17:18 | -19.93321 | 57.57568 | 17113 ft | 405 kts | 307° |
| 2026-05-04 17:19 | -19.89697 | 57.52946 | 17958 ft | 409 kts | 307° |
| 2026-05-04 17:19 | -19.85367 | 57.48948 | 18707 ft | 422 kts | 328° |
| 2026-05-04 17:20 | -19.80071 | 57.46161 | 19452 ft | 427 kts | 332° |
| 2026-05-04 17:20 | -19.74675 | 57.43403 | 20145 ft | 433 kts | 332° |
| 2026-05-04 17:20 | -19.71957 | 57.42007 | 20541 ft | 435 kts | 332° |
| 2026-05-04 17:21 | -19.66489 | 57.39194 | 21345 ft | 439 kts | 332° |
| 2026-05-04 17:21 | -19.60964 | 57.36349 | 22156 ft | 444 kts | 332° |
| 2026-05-04 17:22 | -19.58179 | 57.34916 | 22551 ft | 446 kts | 332° |
| 2026-05-04 17:22 | -19.55383 | 57.33477 | 22969 ft | 448 kts | 332° |
| 2026-05-04 17:23 | -19.46901 | 57.29116 | 24122 ft | 455 kts | 332° |
| 2026-05-04 17:23 | -19.44052 | 57.27652 | 24526 ft | 456 kts | 332° |
| 2026-05-04 17:23 | -19.38331 | 57.24715 | 25352 ft | 458 kts | 332° |
| 2026-05-04 17:24 | -19.35496 | 57.23260 | 25794 ft | 460 kts | 332° |
| 2026-05-04 17:24 | -19.26813 | 57.18811 | 27050 ft | 465 kts | 331° |
| 2026-05-04 17:25 | -19.23900 | 57.17317 | 27466 ft | 466 kts | 331° |
| 2026-05-04 17:25 | -19.18037 | 57.14313 | 28288 ft | 470 kts | 331° |
| 2026-05-04 17:26 | -19.12138 | 57.11294 | 29139 ft | 471 kts | 330° |
| 2026-05-04 17:26 | -19.03253 | 57.06752 | 30258 ft | 476 kts | 330° |
| 2026-05-04 17:27 | -18.97273 | 57.03698 | 30804 ft | 480 kts | 330° |
| 2026-05-04 17:27 | -18.91232 | 57.00616 | 31333 ft | 483 kts | 330° |
| 2026-05-04 17:28 | -18.85156 | 56.97518 | 31837 ft | 487 kts | 330° |
| 2026-05-04 17:29 | -18.75971 | 56.92841 | 32591 ft | 490 kts | 330° |
| 2026-05-04 17:29 | -18.66801 | 56.88179 | 33623 ft | 486 kts | 330° |
| 2026-05-04 17:30 | -18.57692 | 56.83551 | 34477 ft | 483 kts | 330° |
| 2026-05-04 17:31 | -18.51631 | 56.80474 | 34951 ft | 483 kts | 330° |
| 2026-05-04 17:31 | -18.42598 | 56.75894 | 35601 ft | 482 kts | 330° |
| 2026-05-04 17:32 | -18.36559 | 56.72835 | 36100 ft | 480 kts | 330° |
| 2026-05-04 17:33 | -18.27546 | 56.68275 | 36779 ft | 478 kts | 330° |
| 2026-05-04 17:33 | -18.24550 | 56.66760 | 36977 ft | 478 kts | 330° |
| 2026-05-04 17:34 | -18.12487 | 56.60675 | 37019 ft | 481 kts | 331° |
| 2026-05-04 17:35 | -18.02643 | 56.58187 | 37019 ft | 492 kts | 349° |
| 2026-05-04 17:35 | -17.95808 | 56.57541 | 37013 ft | 494 kts | 351° |
| 2026-05-04 17:36 | -17.88955 | 56.56956 | 37011 ft | 494 kts | 351° |
| 2026-05-04 17:36 | -17.82098 | 56.56339 | 37018 ft | 494 kts | 351° |
| 2026-05-04 17:37 | -17.75246 | 56.55697 | 37012 ft | 495 kts | 351° |
| 2026-05-04 17:37 | -17.68434 | 56.55052 | 37015 ft | 495 kts | 351° |
| 2026-05-04 17:38 | -17.61585 | 56.54405 | 37150 ft | 494 kts | 351° |
| 2026-05-04 17:38 | -17.58169 | 56.54083 | 37405 ft | 492 kts | 351° |
| 2026-05-04 17:38 | -17.54773 | 56.53764 | 37637 ft | 490 kts | 351° |
| 2026-05-04 17:38 | -17.51375 | 56.53444 | 37833 ft | 490 kts | 351° |
| 2026-05-04 17:39 | -17.44596 | 56.52806 | 38194 ft | 488 kts | 351° |
| 2026-05-04 17:39 | -17.41211 | 56.52488 | 38359 ft | 488 kts | 351° |
| 2026-05-04 17:39 | -17.37834 | 56.52170 | 38525 ft | 488 kts | 351° |
| 2026-05-04 17:40 | -17.34454 | 56.51852 | 38681 ft | 487 kts | 351° |
| 2026-05-04 17:40 | -17.31082 | 56.51536 | 38812 ft | 487 kts | 351° |
| 2026-05-04 17:40 | -17.24335 | 56.50902 | 38987 ft | 488 kts | 351° |
| 2026-05-04 17:41 | -17.17550 | 56.50263 | 38999 ft | 490 kts | 351° |
| 2026-05-04 17:41 | -17.10761 | 56.49627 | 39000 ft | 490 kts | 351° |
| 2026-05-04 17:42 | -17.03978 | 56.48993 | 38998 ft | 490 kts | 351° |
| 2026-05-04 17:42 | -16.97192 | 56.48357 | 38996 ft | 490 kts | 351° |
| 2026-05-04 17:43 | -16.91505 | 56.47825 | 38996 ft | 490 kts | 351° |
| 2026-05-04 17:43 | -16.84713 | 56.47190 | 38995 ft | 490 kts | 351° |
| 2026-05-04 17:44 | -16.77927 | 56.46557 | 38996 ft | 490 kts | 351° |
| 2026-05-04 17:44 | -16.71139 | 56.45923 | 38996 ft | 490 kts | 351° |
| 2026-05-04 17:45 | -16.64392 | 56.45293 | 38993 ft | 490 kts | 351° |
| 2026-05-04 17:45 | -16.57599 | 56.44660 | 38993 ft | 490 kts | 351° |
| 2026-05-04 17:46 | -16.50805 | 56.44027 | 38993 ft | 490 kts | 351° |
| 2026-05-04 17:46 | -16.44011 | 56.43395 | 38993 ft | 490 kts | 351° |
| 2026-05-04 17:47 | -16.37222 | 56.42763 | 38989 ft | 490 kts | 351° |
| 2026-05-04 17:47 | -16.30422 | 56.42131 | 38992 ft | 491 kts | 351° |
| 2026-05-04 17:48 | -16.23616 | 56.41499 | 38994 ft | 491 kts | 351° |
| 2026-05-04 17:48 | -16.16812 | 56.40867 | 38989 ft | 491 kts | 351° |
| 2026-05-04 17:49 | -16.10007 | 56.40236 | 38981 ft | 491 kts | 351° |
| 2026-05-04 17:49 | -16.03197 | 56.39604 | 38985 ft | 492 kts | 351° |
| 2026-05-04 17:50 | -15.96385 | 56.38973 | 38985 ft | 492 kts | 351° |
| 2026-05-04 17:50 | -15.89567 | 56.38342 | 38985 ft | 492 kts | 351° |
| 2026-05-04 17:51 | -15.82752 | 56.37712 | 38982 ft | 492 kts | 351° |
| 2026-05-04 17:51 | -15.75941 | 56.37082 | 38982 ft | 492 kts | 351° |
| 2026-05-04 17:52 | -15.69118 | 56.36451 | 38979 ft | 492 kts | 351° |
| 2026-05-04 17:52 | -15.62293 | 56.35821 | 38982 ft | 492 kts | 351° |
| 2026-05-04 17:53 | -15.55475 | 56.35192 | 38982 ft | 492 kts | 351° |
| 2026-05-04 17:53 | -15.48651 | 56.34563 | 38978 ft | 492 kts | 351° |
| 2026-05-04 17:54 | -15.41826 | 56.33934 | 38982 ft | 493 kts | 351° |
| 2026-05-04 17:54 | -15.34996 | 56.33305 | 38980 ft | 493 kts | 351° |
| 2026-05-04 17:55 | -15.28170 | 56.32677 | 38980 ft | 492 kts | 351° |
| 2026-05-04 17:55 | -15.21340 | 56.32052 | 38980 ft | 493 kts | 352° |
| 2026-05-04 17:56 | -15.14517 | 56.31427 | 38980 ft | 493 kts | 351° |
| 2026-05-04 17:56 | -15.07684 | 56.30796 | 38981 ft | 493 kts | 351° |
| 2026-05-04 17:57 | -15.00856 | 56.30168 | 38979 ft | 493 kts | 351° |
| 2026-05-04 17:57 | -14.94026 | 56.29541 | 38979 ft | 493 kts | 351° |
| 2026-05-04 17:58 | -14.87190 | 56.28914 | 38976 ft | 494 kts | 352° |
| 2026-05-04 17:58 | -14.80344 | 56.28287 | 38977 ft | 494 kts | 352° |
| 2026-05-04 17:59 | -14.73489 | 56.27660 | 38977 ft | 494 kts | 352° |
| 2026-05-04 18:00 | -14.63257 | 56.26724 | 38980 ft | 494 kts | 352° |
| 2026-05-04 18:00 | -14.56401 | 56.26097 | 38978 ft | 495 kts | 352° |
| 2026-05-04 18:01 | -14.49535 | 56.25470 | 38977 ft | 495 kts | 352° |
| 2026-05-04 18:01 | -14.42670 | 56.24844 | 38976 ft | 495 kts | 352° |
| 2026-05-04 18:02 | -14.32368 | 56.23904 | 38975 ft | 495 kts | 352° |
| 2026-05-04 18:02 | -14.25500 | 56.23278 | 38977 ft | 495 kts | 352° |
| 2026-05-04 18:03 | -14.18633 | 56.22652 | 38977 ft | 495 kts | 352° |
| 2026-05-04 18:03 | -14.11763 | 56.22027 | 38975 ft | 495 kts | 352° |
| 2026-05-04 18:04 | -14.04896 | 56.21402 | 38972 ft | 495 kts | 352° |
| 2026-05-04 18:05 | -13.94594 | 56.20466 | 38970 ft | 496 kts | 352° |
| 2026-05-04 18:05 | -13.87725 | 56.19842 | 38971 ft | 496 kts | 352° |
| 2026-05-04 18:06 | -13.77413 | 56.18906 | 38971 ft | 496 kts | 352° |
| 2026-05-04 18:06 | -13.70582 | 56.18286 | 38970 ft | 496 kts | 352° |
| 2026-05-04 18:07 | -13.63703 | 56.17662 | 38960 ft | 496 kts | 352° |
| 2026-05-04 18:07 | -13.56820 | 56.17038 | 38969 ft | 497 kts | 352° |
| 2026-05-04 18:08 | -13.49936 | 56.16415 | 38969 ft | 497 kts | 352° |
| 2026-05-04 18:08 | -13.43054 | 56.15792 | 38963 ft | 497 kts | 352° |
| 2026-05-04 18:09 | -13.29297 | 56.14548 | 38962 ft | 496 kts | 352° |
| 2026-05-04 18:10 | -13.22420 | 56.13927 | 38978 ft | 496 kts | 352° |
| 2026-05-04 18:10 | -13.15549 | 56.13307 | 38954 ft | 496 kts | 352° |
| 2026-05-04 18:11 | -13.08672 | 56.12686 | 38965 ft | 496 kts | 352° |
| 2026-05-04 18:11 | -13.01806 | 56.12067 | 38958 ft | 495 kts | 353° |
| 2026-05-04 18:12 | -12.94943 | 56.11448 | 38966 ft | 495 kts | 353° |
| 2026-05-04 18:12 | -12.88076 | 56.10829 | 38953 ft | 495 kts | 352° |
| 2026-05-04 18:13 | -12.81217 | 56.10211 | 38950 ft | 495 kts | 353° |
| 2026-05-04 18:14 | -12.70919 | 56.09286 | 38952 ft | 496 kts | 353° |
| 2026-05-04 18:14 | -12.64046 | 56.08669 | 38958 ft | 496 kts | 353° |
| 2026-05-04 18:15 | -12.50311 | 56.07436 | 38949 ft | 496 kts | 353° |
| 2026-05-04 18:16 | -12.43449 | 56.06816 | 38953 ft | 494 kts | 353° |
| 2026-05-04 18:16 | -12.36651 | 56.06206 | 38957 ft | 493 kts | 353° |
| 2026-05-04 18:17 | -12.26398 | 56.05289 | 38949 ft | 493 kts | 353° |
| 2026-05-04 18:18 | -12.16144 | 56.04370 | 38951 ft | 493 kts | 353° |
| 2026-05-04 18:18 | -12.09277 | 56.04345 | 38957 ft | 496 kts | 4° |
| 2026-05-04 18:19 | -11.99014 | 56.05830 | 38954 ft | 497 kts | 7° |
| 2026-05-04 18:19 | -11.92189 | 56.06948 | 38949 ft | 497 kts | 7° |
| 2026-05-04 18:20 | -11.85354 | 56.08055 | 38942 ft | 497 kts | 7° |
| 2026-05-04 18:20 | -11.78547 | 56.09138 | 38948 ft | 494 kts | 7° |
| 2026-05-04 18:21 | -11.71755 | 56.10211 | 38942 ft | 494 kts | 7° |
| 2026-05-04 18:21 | -11.64962 | 56.11285 | 38944 ft | 494 kts | 7° |
| 2026-05-04 18:22 | -11.58172 | 56.12359 | 38937 ft | 494 kts | 7° |
| 2026-05-04 18:22 | -11.51392 | 56.13430 | 38941 ft | 493 kts | 7° |
| 2026-05-04 18:23 | -11.44619 | 56.14500 | 38945 ft | 492 kts | 7° |
| 2026-05-04 18:23 | -11.37848 | 56.15569 | 38936 ft | 492 kts | 7° |
| 2026-05-04 18:24 | -11.31075 | 56.16637 | 38936 ft | 492 kts | 7° |
| 2026-05-04 18:24 | -11.24307 | 56.17706 | 38935 ft | 491 kts | 7° |
| 2026-05-04 18:25 | -11.17623 | 56.18763 | 38933 ft | 489 kts | 7° |
| 2026-05-04 18:25 | -11.10909 | 56.19822 | 38937 ft | 488 kts | 7° |
| 2026-05-04 18:26 | -11.04198 | 56.20878 | 38939 ft | 488 kts | 7° |
| 2026-05-04 18:26 | -10.97486 | 56.21936 | 38932 ft | 488 kts | 7° |
| 2026-05-04 18:27 | -10.90772 | 56.22992 | 38934 ft | 488 kts | 8° |
| 2026-05-04 18:27 | -10.84064 | 56.24046 | 38936 ft | 488 kts | 7° |
| 2026-05-04 18:28 | -10.77349 | 56.25101 | 38935 ft | 488 kts | 8° |
| 2026-05-04 18:28 | -10.70642 | 56.26156 | 38937 ft | 488 kts | 8° |
| 2026-05-04 18:29 | -10.63927 | 56.27211 | 38929 ft | 488 kts | 8° |
| 2026-05-04 18:29 | -10.58310 | 56.28093 | 38932 ft | 487 kts | 8° |
| 2026-05-04 18:30 | -10.48255 | 56.29673 | 38920 ft | 487 kts | 8° |
| 2026-05-04 18:31 | -10.41595 | 56.30718 | 38925 ft | 488 kts | 8° |
| 2026-05-04 18:31 | -10.34895 | 56.31769 | 38923 ft | 488 kts | 8° |
| 2026-05-04 18:32 | -10.28177 | 56.32822 | 38923 ft | 489 kts | 8° |
| 2026-05-04 18:32 | -10.21447 | 56.33876 | 38917 ft | 489 kts | 8° |
| 2026-05-04 18:33 | -10.14720 | 56.34930 | 38922 ft | 489 kts | 8° |
| 2026-05-04 18:33 | -10.07990 | 56.35984 | 38921 ft | 489 kts | 8° |
| 2026-05-04 18:34 | -10.01240 | 56.36920 | 38921 ft | 491 kts | 2° |
| 2026-05-04 18:34 | -9.94428 | 56.36604 | 38918 ft | 491 kts | 354° |
| 2026-05-04 18:35 | -9.87638 | 56.35836 | 38915 ft | 491 kts | 353° |
| 2026-05-04 18:35 | -9.80850 | 56.34997 | 38920 ft | 491 kts | 353° |
| 2026-05-04 18:36 | -9.74062 | 56.34171 | 38914 ft | 491 kts | 353° |
| 2026-05-04 18:36 | -9.67275 | 56.33364 | 38913 ft | 491 kts | 353° |
| 2026-05-04 18:37 | -9.60483 | 56.32562 | 38907 ft | 491 kts | 353° |
| 2026-05-04 18:37 | -9.53741 | 56.31767 | 38912 ft | 491 kts | 353° |
| 2026-05-04 18:38 | -9.46949 | 56.30966 | 38920 ft | 491 kts | 353° |
| 2026-05-04 18:38 | -9.40156 | 56.30164 | 38910 ft | 492 kts | 353° |
| 2026-05-04 18:39 | -9.33345 | 56.29360 | 38911 ft | 493 kts | 353° |
| 2026-05-04 18:39 | -9.26532 | 56.28557 | 38912 ft | 493 kts | 353° |
| 2026-05-04 18:40 | -9.19722 | 56.27754 | 38904 ft | 493 kts | 353° |
| 2026-05-04 18:40 | -9.12913 | 56.26952 | 38906 ft | 493 kts | 353° |
| 2026-05-04 18:41 | -9.06104 | 56.26150 | 38912 ft | 493 kts | 353° |
| 2026-05-04 18:41 | -8.99294 | 56.25348 | 38912 ft | 493 kts | 353° |
| 2026-05-04 18:42 | -8.92484 | 56.24547 | 38910 ft | 493 kts | 353° |
| 2026-05-04 18:42 | -8.85675 | 56.23745 | 38907 ft | 493 kts | 353° |
| 2026-05-04 18:43 | -8.78862 | 56.22944 | 38908 ft | 493 kts | 353° |
| 2026-05-04 18:43 | -8.72050 | 56.22143 | 38910 ft | 493 kts | 353° |
| 2026-05-04 18:44 | -8.65235 | 56.21343 | 38911 ft | 493 kts | 353° |
| 2026-05-04 18:44 | -8.58423 | 56.20542 | 38911 ft | 493 kts | 353° |
| 2026-05-04 18:45 | -8.51608 | 56.19742 | 38910 ft | 493 kts | 353° |
| 2026-05-04 18:45 | -8.44792 | 56.18941 | 38915 ft | 494 kts | 354° |
| 2026-05-04 18:46 | -8.37967 | 56.18141 | 38909 ft | 494 kts | 353° |
| 2026-05-04 18:46 | -8.31135 | 56.17340 | 38913 ft | 494 kts | 354° |
| 2026-05-04 18:47 | -8.24306 | 56.16539 | 38914 ft | 494 kts | 353° |
| 2026-05-04 18:47 | -8.17475 | 56.15738 | 38919 ft | 494 kts | 354° |
| 2026-05-04 18:48 | -8.10677 | 56.14940 | 38915 ft | 490 kts | 354° |
| 2026-05-04 18:48 | -8.03900 | 56.14147 | 38912 ft | 490 kts | 354° |
| 2026-05-04 18:49 | -7.97126 | 56.13354 | 38914 ft | 490 kts | 354° |
| 2026-05-04 18:49 | -7.91119 | 56.12651 | 38910 ft | 490 kts | 354° |
| 2026-05-04 18:50 | -7.84340 | 56.11857 | 38901 ft | 490 kts | 354° |
| 2026-05-04 18:50 | -7.77570 | 56.11065 | 38913 ft | 490 kts | 354° |
| 2026-05-04 18:51 | -7.70796 | 56.10273 | 38801 ft | 490 kts | 354° |
| 2026-05-04 18:51 | -7.67413 | 56.09877 | 38574 ft | 489 kts | 354° |
| 2026-05-04 18:51 | -7.64037 | 56.09482 | 38311 ft | 489 kts | 354° |
| 2026-05-04 18:51 | -7.60656 | 56.09088 | 38044 ft | 489 kts | 354° |
| 2026-05-04 18:52 | -7.57273 | 56.08692 | 37912 ft | 490 kts | 354° |
| 2026-05-04 18:52 | -7.50484 | 56.07896 | 37912 ft | 492 kts | 355° |
| 2026-05-04 18:53 | -7.43672 | 56.07098 | 37907 ft | 494 kts | 355° |
| 2026-05-04 18:53 | -7.36890 | 56.06304 | 37912 ft | 494 kts | 355° |
| 2026-05-04 18:54 | -7.30057 | 56.05505 | 37911 ft | 494 kts | 355° |
| 2026-05-04 18:54 | -7.23220 | 56.04705 | 37908 ft | 495 kts | 355° |
| 2026-05-04 18:55 | -7.16373 | 56.03904 | 37907 ft | 496 kts | 355° |
| 2026-05-04 18:55 | -7.06079 | 56.02701 | 37910 ft | 497 kts | 355° |
| 2026-05-04 18:56 | -6.99217 | 56.01900 | 37904 ft | 497 kts | 355° |
| 2026-05-04 18:56 | -6.92356 | 56.01098 | 37905 ft | 496 kts | 355° |
| 2026-05-04 18:57 | -6.85494 | 56.00297 | 37904 ft | 496 kts | 355° |
| 2026-05-04 18:57 | -6.78650 | 55.99498 | 37906 ft | 495 kts | 355° |
| 2026-05-04 18:58 | -6.71799 | 55.98699 | 37907 ft | 495 kts | 355° |
| 2026-05-04 18:58 | -6.64957 | 55.97901 | 37905 ft | 495 kts | 355° |
| 2026-05-04 18:59 | -6.58099 | 55.97101 | 37908 ft | 495 kts | 354° |
| 2026-05-04 18:59 | -6.51255 | 55.96303 | 37902 ft | 495 kts | 354° |
| 2026-05-04 19:00 | -6.44414 | 55.95505 | 37898 ft | 495 kts | 354° |
| 2026-05-04 19:00 | -6.37576 | 55.94708 | 37901 ft | 495 kts | 354° |
| 2026-05-04 19:01 | -6.30737 | 55.93912 | 37899 ft | 495 kts | 354° |
| 2026-05-04 19:01 | -6.23928 | 55.93119 | 37900 ft | 497 kts | 354° |
| 2026-05-04 19:02 | -6.17061 | 55.92319 | 37900 ft | 497 kts | 354° |
| 2026-05-04 19:02 | -6.10182 | 55.91518 | 37902 ft | 497 kts | 354° |
| 2026-05-04 19:03 | -6.03305 | 55.90718 | 37904 ft | 497 kts | 354° |
| 2026-05-04 19:03 | -5.96427 | 55.89918 | 37899 ft | 497 kts | 354° |
| 2026-05-04 19:04 | -5.89553 | 55.89118 | 37899 ft | 497 kts | 354° |
| 2026-05-04 19:04 | -5.82682 | 55.88319 | 37896 ft | 497 kts | 354° |
| 2026-05-04 19:05 | -5.75807 | 55.87520 | 37896 ft | 497 kts | 354° |
| 2026-05-04 19:05 | -5.68926 | 55.86720 | 37898 ft | 497 kts | 354° |
| 2026-05-04 19:06 | -5.62051 | 55.85921 | 37901 ft | 498 kts | 354° |
| 2026-05-04 19:06 | -5.55169 | 55.85122 | 37901 ft | 498 kts | 354° |
| 2026-05-04 19:07 | -5.48282 | 55.84322 | 37896 ft | 498 kts | 354° |
| 2026-05-04 19:07 | -5.41401 | 55.83523 | 37898 ft | 498 kts | 354° |
| 2026-05-04 19:08 | -5.34519 | 55.82724 | 37903 ft | 498 kts | 354° |
| 2026-05-04 19:08 | -5.27633 | 55.81925 | 37903 ft | 498 kts | 354° |
| 2026-05-04 19:09 | -5.20753 | 55.81126 | 37899 ft | 498 kts | 354° |
| 2026-05-04 19:09 | -5.13875 | 55.80328 | 37898 ft | 498 kts | 354° |
| 2026-05-04 19:10 | -5.06998 | 55.79531 | 37903 ft | 498 kts | 354° |
| 2026-05-04 19:10 | -5.00118 | 55.78733 | 37894 ft | 498 kts | 354° |
| 2026-05-04 19:11 | -4.93279 | 55.77940 | 37897 ft | 498 kts | 354° |
| 2026-05-04 19:11 | -4.86390 | 55.77141 | 37885 ft | 499 kts | 354° |
| 2026-05-04 19:12 | -4.76043 | 55.75942 | 37875 ft | 499 kts | 354° |
| 2026-05-04 19:13 | -4.69151 | 55.75143 | 37870 ft | 499 kts | 354° |
| 2026-05-04 19:13 | -4.62260 | 55.74345 | 37868 ft | 498 kts | 354° |
| 2026-05-04 19:14 | -4.55372 | 55.73548 | 37870 ft | 498 kts | 354° |
| 2026-05-04 19:14 | -4.48489 | 55.72751 | 37876 ft | 498 kts | 354° |
| 2026-05-04 19:15 | -4.41601 | 55.71953 | 37877 ft | 498 kts | 354° |
| 2026-05-04 19:15 | -4.34725 | 55.71157 | 37884 ft | 497 kts | 354° |
| 2026-05-04 19:16 | -4.29015 | 55.70505 | 37886 ft | 497 kts | 355° |
| 2026-05-04 19:16 | -4.22127 | 55.69960 | 37885 ft | 496 kts | 357° |
| 2026-05-04 19:17 | -4.15230 | 55.69523 | 37891 ft | 496 kts | 357° |
| 2026-05-04 19:17 | -4.08342 | 55.69059 | 37888 ft | 497 kts | 356° |
| 2026-05-04 19:18 | -4.01428 | 55.68563 | 37898 ft | 499 kts | 356° |
| 2026-05-04 19:18 | -3.94504 | 55.68057 | 37895 ft | 499 kts | 356° |
| 2026-05-04 19:19 | -3.87576 | 55.67550 | 37892 ft | 499 kts | 356° |
| 2026-05-04 19:19 | -3.80640 | 55.67044 | 38121 ft | 499 kts | 356° |
| 2026-05-04 19:19 | -3.77182 | 55.66792 | 38335 ft | 498 kts | 357° |
| 2026-05-04 19:20 | -3.73735 | 55.66540 | 38606 ft | 496 kts | 357° |
| 2026-05-04 19:20 | -3.70297 | 55.66290 | 38784 ft | 495 kts | 357° |
| 2026-05-04 19:20 | -3.66862 | 55.66040 | 38890 ft | 496 kts | 357° |
| 2026-05-04 19:21 | -3.59979 | 55.65540 | 38896 ft | 496 kts | 357° |
| 2026-05-04 19:21 | -3.53097 | 55.65039 | 38897 ft | 496 kts | 357° |
| 2026-05-04 19:22 | -3.46218 | 55.64538 | 38887 ft | 496 kts | 357° |